sensor_id;sensor_type;location;lat;lon;timestamp;P1;durP1;ratioP1;P2;durP2;ratioP2
2157;SDS011;41972;48.774;9.282;2023-04-16T00:00:09;55.07;;;51.27;;
2157;SDS011;41972;48.774;9.282;2023-04-16T00:02:35;57.20;;;53.40;;
2157;SDS011;41972;48.774;9.282;2023-04-16T00:05:00;48.60;;;44.83;;
2157;SDS011;41972;48.774;9.282;2023-04-16T00:07:26;51.50;;;47.40;;
2157;SDS011;41972;48.774;9.282;2023-04-16T00:09:51;40.30;;;37.00;;
2157;SDS011;41972;48.774;9.282;2023-04-16T00:12:17;41.37;;;38.07;;
2157;SDS011;41972;48.774;9.282;2023-04-16T00:14:42;34.97;;;31.67;;
2157;SDS011;41972;48.774;9.282;2023-04-16T00:17:08;34.10;;;31.13;;
2157;SDS011;41972;48.774;9.282;2023-04-16T00:19:34;35.00;;;31.67;;
2157;SDS011;41972;48.774;9.282;2023-04-16T00:22:00;32.27;;;29.20;;
2157;SDS011;41972;48.774;9.282;2023-04-16T00:24:25;32.90;;;29.80;;
2157;SDS011;41972;48.774;9.282;2023-04-16T00:26:51;32.10;;;29.00;;
2157;SDS011;41972;48.774;9.282;2023-04-16T00:29:16;35.67;;;32.20;;
2157;SDS011;41972;48.774;9.282;2023-04-16T00:31:43;39.10;;;35.70;;
2157;SDS011;41972;48.774;9.282;2023-04-16T00:34:09;37.17;;;34.07;;
2157;SDS011;41972;48.774;9.282;2023-04-16T00:36:35;34.70;;;31.60;;
2157;SDS011;41972;48.774;9.282;2023-04-16T00:39:00;38.53;;;35.43;;
2157;SDS011;41972;48.774;9.282;2023-04-16T00:41:26;51.80;;;48.20;;
2157;SDS011;41972;48.774;9.282;2023-04-16T00:43:51;34.47;;;31.20;;
2157;SDS011;41972;48.774;9.282;2023-04-16T00:46:23;33.07;;;30.17;;
2157;SDS011;41972;48.774;9.282;2023-04-16T00:48:50;33.30;;;30.20;;
2157;SDS011;41972;48.774;9.282;2023-04-16T00:51:16;34.73;;;31.47;;
2157;SDS011;41972;48.774;9.282;2023-04-16T00:53:43;39.70;;;36.53;;
2157;SDS011;41972;48.774;9.282;2023-04-16T00:56:10;32.33;;;29.40;;
2157;SDS011;41972;48.774;9.282;2023-04-16T00:58:37;35.47;;;32.47;;
2157;SDS011;41972;48.774;9.282;2023-04-16T01:01:03;36.00;;;32.83;;
2157;SDS011;41972;48.774;9.282;2023-04-16T01:03:39;35.07;;;31.90;;
2157;SDS011;41972;48.774;9.282;2023-04-16T01:06:09;36.37;;;33.37;;
2157;SDS011;41972;48.774;9.282;2023-04-16T01:08:35;36.23;;;33.13;;
2157;SDS011;41972;48.774;9.282;2023-04-16T01:11:01;35.00;;;31.93;;
2157;SDS011;41972;48.774;9.282;2023-04-16T01:13:27;33.03;;;29.93;;
2157;SDS011;41972;48.774;9.282;2023-04-16T01:15:53;32.97;;;29.97;;
2157;SDS011;41972;48.774;9.282;2023-04-16T01:18:19;73.63;;;69.10;;
2157;SDS011;41972;48.774;9.282;2023-04-16T01:20:46;63.23;;;59.33;;
2157;SDS011;41972;48.774;9.282;2023-04-16T01:23:12;30.40;;;27.40;;
2157;SDS011;41972;48.774;9.282;2023-04-16T01:25:39;81.87;;;77.33;;
2157;SDS011;41972;48.774;9.282;2023-04-16T01:28:04;56.10;;;52.40;;
2157;SDS011;41972;48.774;9.282;2023-04-16T01:30:30;99.23;;;94.33;;
2157;SDS011;41972;48.774;9.282;2023-04-16T01:32:56;62.87;;;59.10;;
2157;SDS011;41972;48.774;9.282;2023-04-16T01:35:22;31.90;;;28.67;;
2157;SDS011;41972;48.774;9.282;2023-04-16T01:37:48;35.37;;;32.47;;
2157;SDS011;41972;48.774;9.282;2023-04-16T01:40:15;31.60;;;28.60;;
2157;SDS011;41972;48.774;9.282;2023-04-16T01:42:40;32.70;;;29.93;;
2157;SDS011;41972;48.774;9.282;2023-04-16T01:45:06;41.00;;;37.90;;
2157;SDS011;41972;48.774;9.282;2023-04-16T01:47:32;50.13;;;46.93;;
2157;SDS011;41972;48.774;9.282;2023-04-16T01:49:58;30.33;;;27.67;;
2157;SDS011;41972;48.774;9.282;2023-04-16T01:52:24;36.87;;;34.07;;
2157;SDS011;41972;48.774;9.282;2023-04-16T01:54:50;45.70;;;42.50;;
2157;SDS011;41972;48.774;9.282;2023-04-16T01:57:15;86.33;;;82.13;;
2157;SDS011;41972;48.774;9.282;2023-04-16T01:59:41;96.10;;;91.53;;
2157;SDS011;41972;48.774;9.282;2023-04-16T02:02:10;75.33;;;71.27;;
2157;SDS011;41972;48.774;9.282;2023-04-16T02:04:40;65.83;;;62.00;;
2157;SDS011;41972;48.774;9.282;2023-04-16T02:07:07;83.70;;;79.50;;
2157;SDS011;41972;48.774;9.282;2023-04-16T02:09:34;31.80;;;29.20;;
2157;SDS011;41972;48.774;9.282;2023-04-16T02:12:00;26.27;;;23.90;;
2157;SDS011;41972;48.774;9.282;2023-04-16T02:14:29;33.93;;;31.43;;
2157;SDS011;41972;48.774;9.282;2023-04-16T02:16:56;30.97;;;28.17;;
2157;SDS011;41972;48.774;9.282;2023-04-16T02:19:21;50.03;;;46.70;;
2157;SDS011;41972;48.774;9.282;2023-04-16T02:21:47;52.53;;;49.33;;
2157;SDS011;41972;48.774;9.282;2023-04-16T02:24:13;69.60;;;65.83;;
2157;SDS011;41972;48.774;9.282;2023-04-16T02:26:38;51.00;;;47.90;;
2157;SDS011;41972;48.774;9.282;2023-04-16T02:29:04;38.53;;;35.67;;
2157;SDS011;41972;48.774;9.282;2023-04-16T02:31:30;39.47;;;36.53;;
2157;SDS011;41972;48.774;9.282;2023-04-16T02:33:55;62.53;;;59.10;;
2157;SDS011;41972;48.774;9.282;2023-04-16T02:36:21;53.70;;;50.60;;
2157;SDS011;41972;48.774;9.282;2023-04-16T02:38:47;30.43;;;27.40;;
2157;SDS011;41972;48.774;9.282;2023-04-16T02:41:12;40.87;;;37.90;;
2157;SDS011;41972;48.774;9.282;2023-04-16T02:43:38;45.60;;;42.80;;
2157;SDS011;41972;48.774;9.282;2023-04-16T02:46:03;29.90;;;27.30;;
2157;SDS011;41972;48.774;9.282;2023-04-16T02:48:29;48.27;;;45.27;;
2157;SDS011;41972;48.774;9.282;2023-04-16T02:50:55;46.40;;;43.37;;
2157;SDS011;41972;48.774;9.282;2023-04-16T02:53:21;48.07;;;44.97;;
2157;SDS011;41972;48.774;9.282;2023-04-16T02:55:50;34.87;;;32.07;;
2157;SDS011;41972;48.774;9.282;2023-04-16T02:58:17;41.30;;;38.50;;
2157;SDS011;41972;48.774;9.282;2023-04-16T03:00:43;64.73;;;60.87;;
2157;SDS011;41972;48.774;9.282;2023-04-16T03:03:09;55.40;;;52.03;;
2157;SDS011;41972;48.774;9.282;2023-04-16T03:05:34;26.83;;;24.20;;
2157;SDS011;41972;48.774;9.282;2023-04-16T03:08:00;27.33;;;24.83;;
2157;SDS011;41972;48.774;9.282;2023-04-16T03:10:25;62.97;;;59.50;;
2157;SDS011;41972;48.774;9.282;2023-04-16T03:12:51;56.20;;;52.73;;
2157;SDS011;41972;48.774;9.282;2023-04-16T03:15:16;33.60;;;30.57;;
2157;SDS011;41972;48.774;9.282;2023-04-16T03:17:42;32.13;;;29.57;;
2157;SDS011;41972;48.774;9.282;2023-04-16T03:20:07;38.07;;;34.87;;
2157;SDS011;41972;48.774;9.282;2023-04-16T03:22:34;55.67;;;52.20;;
2157;SDS011;41972;48.774;9.282;2023-04-16T03:24:59;24.80;;;22.60;;
2157;SDS011;41972;48.774;9.282;2023-04-16T03:27:25;33.67;;;30.67;;
2157;SDS011;41972;48.774;9.282;2023-04-16T03:29:50;33.30;;;30.40;;
2157;SDS011;41972;48.774;9.282;2023-04-16T03:32:16;116.80;;;111.57;;
2157;SDS011;41972;48.774;9.282;2023-04-16T03:34:42;34.10;;;31.10;;
2157;SDS011;41972;48.774;9.282;2023-04-16T03:37:07;61.77;;;58.07;;
2157;SDS011;41972;48.774;9.282;2023-04-16T03:39:35;73.80;;;69.80;;
2157;SDS011;41972;48.774;9.282;2023-04-16T03:42:01;53.83;;;50.43;;
2157;SDS011;41972;48.774;9.282;2023-04-16T03:44:27;28.73;;;26.17;;
2157;SDS011;41972;48.774;9.282;2023-04-16T03:46:54;29.23;;;26.43;;
2157;SDS011;41972;48.774;9.282;2023-04-16T03:49:19;32.57;;;29.73;;
2157;SDS011;41972;48.774;9.282;2023-04-16T03:51:45;52.27;;;48.83;;
2157;SDS011;41972;48.774;9.282;2023-04-16T03:54:11;45.47;;;42.37;;
2157;SDS011;41972;48.774;9.282;2023-04-16T03:56:38;40.97;;;37.60;;
2157;SDS011;41972;48.774;9.282;2023-04-16T03:59:04;32.40;;;29.60;;
2157;SDS011;41972;48.774;9.282;2023-04-16T04:01:29;32.87;;;29.83;;
2157;SDS011;41972;48.774;9.282;2023-04-16T04:03:55;32.00;;;28.97;;
2157;SDS011;41972;48.774;9.282;2023-04-16T04:06:21;33.33;;;30.13;;
2157;SDS011;41972;48.774;9.282;2023-04-16T04:08:46;31.27;;;28.40;;
2157;SDS011;41972;48.774;9.282;2023-04-16T04:11:12;31.20;;;28.20;;
2157;SDS011;41972;48.774;9.282;2023-04-16T04:13:37;38.00;;;34.63;;
2157;SDS011;41972;48.774;9.282;2023-04-16T04:16:03;29.83;;;26.87;;
2157;SDS011;41972;48.774;9.282;2023-04-16T04:18:29;50.20;;;46.40;;
2157;SDS011;41972;48.774;9.282;2023-04-16T04:20:55;83.90;;;79.13;;
2157;SDS011;41972;48.774;9.282;2023-04-16T04:23:21;59.23;;;55.03;;
2157;SDS011;41972;48.774;9.282;2023-04-16T04:25:47;53.03;;;49.03;;
2157;SDS011;41972;48.774;9.282;2023-04-16T04:28:13;65.37;;;60.93;;
2157;SDS011;41972;48.774;9.282;2023-04-16T04:30:38;36.20;;;32.80;;
2157;SDS011;41972;48.774;9.282;2023-04-16T04:33:05;38.00;;;34.17;;
2157;SDS011;41972;48.774;9.282;2023-04-16T04:35:30;73.53;;;68.87;;
2157;SDS011;41972;48.774;9.282;2023-04-16T04:37:56;49.80;;;46.00;;
2157;SDS011;41972;48.774;9.282;2023-04-16T04:40:22;75.53;;;70.97;;
2157;SDS011;41972;48.774;9.282;2023-04-16T04:42:47;37.53;;;34.23;;
2157;SDS011;41972;48.774;9.282;2023-04-16T04:45:13;37.03;;;33.53;;
2157;SDS011;41972;48.774;9.282;2023-04-16T04:47:38;32.87;;;29.47;;
2157;SDS011;41972;48.774;9.282;2023-04-16T04:50:04;33.00;;;29.63;;
2157;SDS011;41972;48.774;9.282;2023-04-16T04:52:30;39.97;;;36.33;;
2157;SDS011;41972;48.774;9.282;2023-04-16T04:54:56;100.03;;;94.63;;
2157;SDS011;41972;48.774;9.282;2023-04-16T04:57:21;40.00;;;36.23;;
2157;SDS011;41972;48.774;9.282;2023-04-16T04:59:47;78.13;;;73.20;;
2157;SDS011;41972;48.774;9.282;2023-04-16T05:02:12;35.27;;;31.83;;
2157;SDS011;41972;48.774;9.282;2023-04-16T05:04:38;33.20;;;30.20;;
2157;SDS011;41972;48.774;9.282;2023-04-16T05:07:03;33.07;;;29.70;;
2157;SDS011;41972;48.774;9.282;2023-04-16T05:09:30;33.10;;;29.50;;
2157;SDS011;41972;48.774;9.282;2023-04-16T05:11:56;31.80;;;26.67;;
2157;SDS011;41972;48.774;9.282;2023-04-16T05:14:21;34.80;;;31.07;;
2157;SDS011;41972;48.774;9.282;2023-04-16T05:16:47;32.90;;;29.47;;
2157;SDS011;41972;48.774;9.282;2023-04-16T05:19:12;33.27;;;29.90;;
2157;SDS011;41972;48.774;9.282;2023-04-16T05:21:38;33.97;;;30.27;;
2157;SDS011;41972;48.774;9.282;2023-04-16T05:24:04;33.27;;;29.87;;
2157;SDS011;41972;48.774;9.282;2023-04-16T05:26:30;35.80;;;31.57;;
2157;SDS011;41972;48.774;9.282;2023-04-16T05:28:56;34.60;;;31.00;;
2157;SDS011;41972;48.774;9.282;2023-04-16T05:31:21;34.77;;;29.33;;
2157;SDS011;41972;48.774;9.282;2023-04-16T05:33:47;33.30;;;29.70;;
2157;SDS011;41972;48.774;9.282;2023-04-16T05:36:12;34.07;;;28.60;;
2157;SDS011;41972;48.774;9.282;2023-04-16T05:38:38;34.00;;;28.90;;
2157;SDS011;41972;48.774;9.282;2023-04-16T05:41:03;31.70;;;28.00;;
2157;SDS011;41972;48.774;9.282;2023-04-16T05:43:29;38.07;;;31.40;;
2157;SDS011;41972;48.774;9.282;2023-04-16T05:45:55;40.50;;;29.90;;
2157;SDS011;41972;48.774;9.282;2023-04-16T05:48:20;41.97;;;37.70;;
2157;SDS011;41972;48.774;9.282;2023-04-16T05:50:46;40.10;;;31.90;;
2157;SDS011;41972;48.774;9.282;2023-04-16T05:53:13;38.20;;;34.07;;
2157;SDS011;41972;48.774;9.282;2023-04-16T05:55:38;42.83;;;37.37;;
2157;SDS011;41972;48.774;9.282;2023-04-16T05:58:04;41.60;;;36.70;;
2157;SDS011;41972;48.774;9.282;2023-04-16T06:00:30;47.70;;;42.87;;
2157;SDS011;41972;48.774;9.282;2023-04-16T06:02:56;47.20;;;42.10;;
2157;SDS011;41972;48.774;9.282;2023-04-16T06:05:22;50.83;;;44.37;;
2157;SDS011;41972;48.774;9.282;2023-04-16T06:07:50;51.60;;;39.00;;
2157;SDS011;41972;48.774;9.282;2023-04-16T06:10:16;44.20;;;38.93;;
2157;SDS011;41972;48.774;9.282;2023-04-16T06:12:42;51.30;;;43.73;;
2157;SDS011;41972;48.774;9.282;2023-04-16T06:15:08;55.70;;;48.63;;
2157;SDS011;41972;48.774;9.282;2023-04-16T06:17:33;57.90;;;51.33;;
2157;SDS011;41972;48.774;9.282;2023-04-16T06:19:59;60.27;;;48.13;;
2157;SDS011;41972;48.774;9.282;2023-04-16T06:22:24;64.37;;;47.33;;
2157;SDS011;41972;48.774;9.282;2023-04-16T06:24:51;57.67;;;48.27;;
2157;SDS011;41972;48.774;9.282;2023-04-16T06:27:17;61.00;;;46.70;;
2157;SDS011;41972;48.774;9.282;2023-04-16T06:29:43;66.13;;;50.00;;
2157;SDS011;41972;48.774;9.282;2023-04-16T06:32:08;72.97;;;52.97;;
2157;SDS011;41972;48.774;9.282;2023-04-16T06:34:34;68.67;;;60.33;;
2157;SDS011;41972;48.774;9.282;2023-04-16T06:37:01;62.80;;;51.30;;
2157;SDS011;41972;48.774;9.282;2023-04-16T06:39:27;64.03;;;49.43;;
2157;SDS011;41972;48.774;9.282;2023-04-16T06:41:52;60.60;;;46.27;;
2157;SDS011;41972;48.774;9.282;2023-04-16T06:44:18;62.23;;;48.30;;
2157;SDS011;41972;48.774;9.282;2023-04-16T06:46:43;60.33;;;46.67;;
2157;SDS011;41972;48.774;9.282;2023-04-16T06:49:09;58.27;;;49.40;;
2157;SDS011;41972;48.774;9.282;2023-04-16T06:51:35;64.97;;;48.00;;
2157;SDS011;41972;48.774;9.282;2023-04-16T06:54:00;58.33;;;48.97;;
2157;SDS011;41972;48.774;9.282;2023-04-16T06:56:26;60.53;;;50.77;;
2157;SDS011;41972;48.774;9.282;2023-04-16T06:58:51;56.00;;;48.40;;
2157;SDS011;41972;48.774;9.282;2023-04-16T07:01:18;64.27;;;49.07;;
2157;SDS011;41972;48.774;9.282;2023-04-16T07:03:44;61.63;;;49.13;;
2157;SDS011;41972;48.774;9.282;2023-04-16T07:06:09;57.67;;;47.30;;
2157;SDS011;41972;48.774;9.282;2023-04-16T07:08:35;75.77;;;68.67;;
2157;SDS011;41972;48.774;9.282;2023-04-16T07:11:01;55.23;;;48.90;;
2157;SDS011;41972;48.774;9.282;2023-04-16T07:13:26;55.97;;;46.00;;
2157;SDS011;41972;48.774;9.282;2023-04-16T07:15:52;59.00;;;49.00;;
2157;SDS011;41972;48.774;9.282;2023-04-16T07:18:18;57.53;;;48.17;;
2157;SDS011;41972;48.774;9.282;2023-04-16T07:20:43;53.87;;;47.37;;
2157;SDS011;41972;48.774;9.282;2023-04-16T07:23:10;53.07;;;45.40;;
2157;SDS011;41972;48.774;9.282;2023-04-16T07:25:36;59.27;;;53.30;;
2157;SDS011;41972;48.774;9.282;2023-04-16T07:28:02;50.10;;;43.57;;
2157;SDS011;41972;48.774;9.282;2023-04-16T07:30:28;56.90;;;49.80;;
2157;SDS011;41972;48.774;9.282;2023-04-16T07:32:58;55.83;;;46.20;;
2157;SDS011;41972;48.774;9.282;2023-04-16T07:35:24;50.13;;;44.57;;
2157;SDS011;41972;48.774;9.282;2023-04-16T07:37:50;47.07;;;42.07;;
2157;SDS011;41972;48.774;9.282;2023-04-16T07:40:15;51.27;;;45.67;;
2157;SDS011;41972;48.774;9.282;2023-04-16T07:42:41;49.90;;;44.70;;
2157;SDS011;41972;48.774;9.282;2023-04-16T07:45:07;49.67;;;44.30;;
2157;SDS011;41972;48.774;9.282;2023-04-16T07:47:33;52.60;;;47.00;;
2157;SDS011;41972;48.774;9.282;2023-04-16T07:49:58;47.63;;;42.70;;
2157;SDS011;41972;48.774;9.282;2023-04-16T07:52:24;42.00;;;37.60;;
2157;SDS011;41972;48.774;9.282;2023-04-16T07:54:50;48.43;;;43.20;;
2157;SDS011;41972;48.774;9.282;2023-04-16T07:57:16;43.23;;;38.17;;
2157;SDS011;41972;48.774;9.282;2023-04-16T07:59:41;43.07;;;37.67;;
2157;SDS011;41972;48.774;9.282;2023-04-16T08:02:08;44.50;;;40.10;;
2157;SDS011;41972;48.774;9.282;2023-04-16T08:04:37;47.57;;;42.73;;
2157;SDS011;41972;48.774;9.282;2023-04-16T08:07:02;46.70;;;41.80;;
2157;SDS011;41972;48.774;9.282;2023-04-16T08:09:28;53.60;;;48.50;;
2157;SDS011;41972;48.774;9.282;2023-04-16T08:11:54;52.13;;;46.97;;
2157;SDS011;41972;48.774;9.282;2023-04-16T08:14:20;43.50;;;39.07;;
2157;SDS011;41972;48.774;9.282;2023-04-16T08:16:46;45.47;;;40.87;;
2157;SDS011;41972;48.774;9.282;2023-04-16T08:19:11;51.03;;;45.77;;
2157;SDS011;41972;48.774;9.282;2023-04-16T08:21:37;38.60;;;34.63;;
2157;SDS011;41972;48.774;9.282;2023-04-16T08:24:04;41.87;;;37.37;;
2157;SDS011;41972;48.774;9.282;2023-04-16T08:26:30;47.87;;;43.37;;
2157;SDS011;41972;48.774;9.282;2023-04-16T08:28:55;41.07;;;36.80;;
2157;SDS011;41972;48.774;9.282;2023-04-16T08:31:21;39.23;;;35.00;;
2157;SDS011;41972;48.774;9.282;2023-04-16T08:33:46;39.57;;;35.67;;
2157;SDS011;41972;48.774;9.282;2023-04-16T08:36:12;39.30;;;35.13;;
2157;SDS011;41972;48.774;9.282;2023-04-16T08:38:37;37.23;;;33.43;;
2157;SDS011;41972;48.774;9.282;2023-04-16T08:41:04;37.20;;;33.50;;
2157;SDS011;41972;48.774;9.282;2023-04-16T08:43:33;41.10;;;37.10;;
2157;SDS011;41972;48.774;9.282;2023-04-16T08:46:01;37.80;;;33.90;;
2157;SDS011;41972;48.774;9.282;2023-04-16T08:48:29;38.57;;;34.77;;
2157;SDS011;41972;48.774;9.282;2023-04-16T08:50:57;39.70;;;35.83;;
2157;SDS011;41972;48.774;9.282;2023-04-16T08:53:28;35.87;;;32.47;;
2157;SDS011;41972;48.774;9.282;2023-04-16T08:56:03;38.10;;;34.57;;
2157;SDS011;41972;48.774;9.282;2023-04-16T08:58:29;62.17;;;57.50;;
2157;SDS011;41972;48.774;9.282;2023-04-16T09:00:58;45.17;;;41.40;;
2157;SDS011;41972;48.774;9.282;2023-04-16T09:03:26;40.10;;;36.50;;
2157;SDS011;41972;48.774;9.282;2023-04-16T09:05:54;41.00;;;37.20;;
2157;SDS011;41972;48.774;9.282;2023-04-16T09:08:23;37.17;;;33.77;;
2157;SDS011;41972;48.774;9.282;2023-04-16T09:10:49;38.87;;;35.07;;
2157;SDS011;41972;48.774;9.282;2023-04-16T09:13:15;41.33;;;37.23;;
2157;SDS011;41972;48.774;9.282;2023-04-16T09:15:44;40.90;;;37.00;;
2157;SDS011;41972;48.774;9.282;2023-04-16T09:18:10;39.97;;;36.13;;
2157;SDS011;41972;48.774;9.282;2023-04-16T09:20:36;42.03;;;37.90;;
2157;SDS011;41972;48.774;9.282;2023-04-16T09:23:02;41.27;;;37.20;;
2157;SDS011;41972;48.774;9.282;2023-04-16T09:25:32;39.30;;;35.53;;
2157;SDS011;41972;48.774;9.282;2023-04-16T09:27:58;35.90;;;32.60;;
2157;SDS011;41972;48.774;9.282;2023-04-16T09:30:25;38.50;;;35.00;;
2157;SDS011;41972;48.774;9.282;2023-04-16T09:32:52;34.60;;;30.90;;
2157;SDS011;41972;48.774;9.282;2023-04-16T09:35:43;36.17;;;30.57;;
2157;SDS011;41972;48.774;9.282;2023-04-16T09:38:18;85.60;;;80.67;;
2157;SDS011;41972;48.774;9.282;2023-04-16T09:40:45;73.87;;;69.30;;
2157;SDS011;41972;48.774;9.282;2023-04-16T09:45:48;38.97;;;35.17;;
2157;SDS011;41972;48.774;9.282;2023-04-16T09:48:14;38.60;;;35.00;;
2157;SDS011;41972;48.774;9.282;2023-04-16T09:50:43;39.90;;;35.97;;
2157;SDS011;41972;48.774;9.282;2023-04-16T09:53:14;37.90;;;34.50;;
2157;SDS011;41972;48.774;9.282;2023-04-16T09:55:52;40.70;;;36.63;;
2157;SDS011;41972;48.774;9.282;2023-04-16T09:58:40;37.90;;;34.43;;
2157;SDS011;41972;48.774;9.282;2023-04-16T10:01:07;33.57;;;30.30;;
2157;SDS011;41972;48.774;9.282;2023-04-16T10:03:34;37.03;;;33.50;;
2157;SDS011;41972;48.774;9.282;2023-04-16T10:06:35;38.17;;;34.73;;
2157;SDS011;41972;48.774;9.282;2023-04-16T10:08:53;39.73;;;35.97;;
2157;SDS011;41972;48.774;9.282;2023-04-16T10:11:22;36.17;;;32.67;;
2157;SDS011;41972;48.774;9.282;2023-04-16T10:13:48;40.57;;;36.80;;
2157;SDS011;41972;48.774;9.282;2023-04-16T10:16:15;35.93;;;32.23;;
2157;SDS011;41972;48.774;9.282;2023-04-16T10:18:42;36.83;;;33.43;;
2157;SDS011;41972;48.774;9.282;2023-04-16T10:21:09;36.10;;;32.67;;
2157;SDS011;41972;48.774;9.282;2023-04-16T10:23:39;39.27;;;35.57;;
2157;SDS011;41972;48.774;9.282;2023-04-16T10:26:05;33.17;;;29.93;;
2157;SDS011;41972;48.774;9.282;2023-04-16T10:28:31;35.30;;;31.77;;
2157;SDS011;41972;48.774;9.282;2023-04-16T10:30:59;37.13;;;33.30;;
2157;SDS011;41972;48.774;9.282;2023-04-16T10:33:28;37.57;;;33.67;;
2157;SDS011;41972;48.774;9.282;2023-04-16T10:38:33;35.10;;;31.27;;
2157;SDS011;41972;48.774;9.282;2023-04-16T10:41:02;38.97;;;34.97;;
2157;SDS011;41972;48.774;9.282;2023-04-16T10:43:29;34.27;;;30.70;;
2157;SDS011;41972;48.774;9.282;2023-04-16T10:45:55;38.07;;;34.17;;
2157;SDS011;41972;48.774;9.282;2023-04-16T10:48:22;44.93;;;40.93;;
2157;SDS011;41972;48.774;9.282;2023-04-16T10:50:55;34.63;;;30.90;;
2157;SDS011;41972;48.774;9.282;2023-04-16T10:53:25;35.50;;;32.10;;
2157;SDS011;41972;48.774;9.282;2023-04-16T10:58:29;31.87;;;28.67;;
2157;SDS011;41972;48.774;9.282;2023-04-16T11:00:59;31.27;;;28.10;;
2157;SDS011;41972;48.774;9.282;2023-04-16T11:03:29;29.10;;;26.20;;
2157;SDS011;41972;48.774;9.282;2023-04-16T11:06:11;31.77;;;28.60;;
2157;SDS011;41972;48.774;9.282;2023-04-16T11:08:39;31.13;;;27.93;;
2157;SDS011;41972;48.774;9.282;2023-04-16T11:11:05;32.13;;;29.00;;
2157;SDS011;41972;48.774;9.282;2023-04-16T11:13:30;33.53;;;30.60;;
2157;SDS011;41972;48.774;9.282;2023-04-16T11:15:56;27.30;;;24.50;;
2157;SDS011;41972;48.774;9.282;2023-04-16T11:18:22;29.83;;;27.07;;
2157;SDS011;41972;48.774;9.282;2023-04-16T11:20:49;26.10;;;23.47;;
2157;SDS011;41972;48.774;9.282;2023-04-16T11:23:15;25.70;;;23.07;;
2157;SDS011;41972;48.774;9.282;2023-04-16T11:25:41;26.20;;;23.80;;
2157;SDS011;41972;48.774;9.282;2023-04-16T11:28:06;25.03;;;22.53;;
2157;SDS011;41972;48.774;9.282;2023-04-16T11:30:41;28.23;;;25.77;;
2157;SDS011;41972;48.774;9.282;2023-04-16T11:33:07;27.10;;;24.57;;
2157;SDS011;41972;48.774;9.282;2023-04-16T11:35:35;29.13;;;26.83;;
2157;SDS011;41972;48.774;9.282;2023-04-16T11:38:03;21.63;;;19.63;;
2157;SDS011;41972;48.774;9.282;2023-04-16T11:40:30;24.03;;;21.67;;
2157;SDS011;41972;48.774;9.282;2023-04-16T11:42:59;20.37;;;18.47;;
2157;SDS011;41972;48.774;9.282;2023-04-16T11:45:26;21.20;;;19.33;;
2157;SDS011;41972;48.774;9.282;2023-04-16T11:47:52;20.03;;;18.07;;
2157;SDS011;41972;48.774;9.282;2023-04-16T11:50:21;18.83;;;16.93;;
2157;SDS011;41972;48.774;9.282;2023-04-16T11:52:52;23.57;;;21.57;;
2157;SDS011;41972;48.774;9.282;2023-04-16T11:55:19;16.17;;;14.70;;
2157;SDS011;41972;48.774;9.282;2023-04-16T11:57:45;19.57;;;17.87;;
2157;SDS011;41972;48.774;9.282;2023-04-16T12:00:10;20.57;;;18.87;;
2157;SDS011;41972;48.774;9.282;2023-04-16T12:02:38;17.70;;;16.20;;
2157;SDS011;41972;48.774;9.282;2023-04-16T12:07:56;19.80;;;17.90;;
2157;SDS011;41972;48.774;9.282;2023-04-16T12:10:23;19.07;;;17.40;;
2157;SDS011;41972;48.774;9.282;2023-04-16T12:12:50;20.23;;;18.43;;
2157;SDS011;41972;48.774;9.282;2023-04-16T12:15:16;21.43;;;19.63;;
2157;SDS011;41972;48.774;9.282;2023-04-16T12:17:41;21.73;;;19.93;;
2157;SDS011;41972;48.774;9.282;2023-04-16T12:20:08;19.00;;;17.40;;
2157;SDS011;41972;48.774;9.282;2023-04-16T12:22:39;18.70;;;17.00;;
2157;SDS011;41972;48.774;9.282;2023-04-16T12:25:12;17.63;;;16.07;;
2157;SDS011;41972;48.774;9.282;2023-04-16T12:27:49;16.67;;;14.50;;
2157;SDS011;41972;48.774;9.282;2023-04-16T12:30:23;17.40;;;15.80;;
2157;SDS011;41972;48.774;9.282;2023-04-16T12:32:51;18.40;;;16.90;;
2157;SDS011;41972;48.774;9.282;2023-04-16T12:35:35;17.17;;;15.73;;
2157;SDS011;41972;48.774;9.282;2023-04-16T12:38:01;15.50;;;14.10;;
2157;SDS011;41972;48.774;9.282;2023-04-16T12:40:27;14.20;;;12.90;;
2157;SDS011;41972;48.774;9.282;2023-04-16T12:42:53;14.93;;;13.43;;
2157;SDS011;41972;48.774;9.282;2023-04-16T12:45:18;16.10;;;14.70;;
2157;SDS011;41972;48.774;9.282;2023-04-16T12:47:45;16.00;;;14.90;;
2157;SDS011;41972;48.774;9.282;2023-04-16T12:50:10;17.30;;;16.00;;
2157;SDS011;41972;48.774;9.282;2023-04-16T12:52:36;15.43;;;14.23;;
2157;SDS011;41972;48.774;9.282;2023-04-16T12:55:02;16.90;;;15.60;;
2157;SDS011;41972;48.774;9.282;2023-04-16T12:57:27;16.80;;;15.70;;
2157;SDS011;41972;48.774;9.282;2023-04-16T12:59:53;13.77;;;12.77;;
2157;SDS011;41972;48.774;9.282;2023-04-16T13:02:20;15.37;;;14.07;;
2157;SDS011;41972;48.774;9.282;2023-04-16T13:04:46;20.80;;;19.33;;
2157;SDS011;41972;48.774;9.282;2023-04-16T13:07:12;16.87;;;15.60;;
2157;SDS011;41972;48.774;9.282;2023-04-16T13:09:38;18.40;;;16.80;;
2157;SDS011;41972;48.774;9.282;2023-04-16T13:12:05;15.87;;;14.63;;
2157;SDS011;41972;48.774;9.282;2023-04-16T13:14:31;16.17;;;14.90;;
2157;SDS011;41972;48.774;9.282;2023-04-16T13:16:56;13.97;;;12.87;;
2157;SDS011;41972;48.774;9.282;2023-04-16T13:19:22;22.13;;;20.17;;
2157;SDS011;41972;48.774;9.282;2023-04-16T13:21:47;16.90;;;15.67;;
2157;SDS011;41972;48.774;9.282;2023-04-16T13:24:13;17.70;;;16.30;;
2157;SDS011;41972;48.774;9.282;2023-04-16T13:26:38;15.57;;;14.27;;
2157;SDS011;41972;48.774;9.282;2023-04-16T13:29:04;14.47;;;13.23;;
2157;SDS011;41972;48.774;9.282;2023-04-16T13:31:29;16.30;;;14.90;;
2157;SDS011;41972;48.774;9.282;2023-04-16T13:33:55;17.87;;;16.33;;
2157;SDS011;41972;48.774;9.282;2023-04-16T13:36:20;18.17;;;16.87;;
2157;SDS011;41972;48.774;9.282;2023-04-16T13:38:46;17.27;;;15.80;;
2157;SDS011;41972;48.774;9.282;2023-04-16T13:41:11;16.83;;;15.33;;
2157;SDS011;41972;48.774;9.282;2023-04-16T13:43:37;17.10;;;15.70;;
2157;SDS011;41972;48.774;9.282;2023-04-16T13:46:03;19.10;;;17.50;;
2157;SDS011;41972;48.774;9.282;2023-04-16T13:48:28;18.90;;;17.27;;
2157;SDS011;41972;48.774;9.282;2023-04-16T13:50:54;17.30;;;15.83;;
2157;SDS011;41972;48.774;9.282;2023-04-16T13:53:20;18.67;;;17.10;;
2157;SDS011;41972;48.774;9.282;2023-04-16T13:55:46;15.40;;;14.10;;
2157;SDS011;41972;48.774;9.282;2023-04-16T13:58:13;15.87;;;14.30;;
2157;SDS011;41972;48.774;9.282;2023-04-16T14:00:39;16.80;;;15.30;;
2157;SDS011;41972;48.774;9.282;2023-04-16T14:03:05;18.10;;;16.23;;
2157;SDS011;41972;48.774;9.282;2023-04-16T14:05:31;18.97;;;17.17;;
2157;SDS011;41972;48.774;9.282;2023-04-16T14:07:57;21.57;;;19.77;;
2157;SDS011;41972;48.774;9.282;2023-04-16T14:10:22;19.83;;;18.13;;
2157;SDS011;41972;48.774;9.282;2023-04-16T14:12:48;18.80;;;17.10;;
2157;SDS011;41972;48.774;9.282;2023-04-16T14:15:13;20.00;;;18.27;;
2157;SDS011;41972;48.774;9.282;2023-04-16T14:17:40;20.47;;;18.87;;
2157;SDS011;41972;48.774;9.282;2023-04-16T14:20:07;19.20;;;17.53;;
2157;SDS011;41972;48.774;9.282;2023-04-16T14:22:33;19.53;;;17.70;;
2157;SDS011;41972;48.774;9.282;2023-04-16T14:24:58;20.10;;;18.30;;
2157;SDS011;41972;48.774;9.282;2023-04-16T14:27:24;20.80;;;19.00;;
2157;SDS011;41972;48.774;9.282;2023-04-16T14:29:51;20.90;;;19.10;;
2157;SDS011;41972;48.774;9.282;2023-04-16T14:32:16;27.87;;;25.93;;
2157;SDS011;41972;48.774;9.282;2023-04-16T14:34:42;24.30;;;22.20;;
2157;SDS011;41972;48.774;9.282;2023-04-16T14:37:07;23.77;;;21.80;;
2157;SDS011;41972;48.774;9.282;2023-04-16T14:39:33;21.60;;;19.77;;